TSS

The Salem Special - cemetery at Havelock

Station: cemetery - T Race

Distance: 43 Kilometers    

Release: 15-Sep-2020 11:15

Weather Release:    Arrival:

Wind at Release:     Wind at Arrival:

Temp at Release: °    Temp at Arrival: °

Lofts: 120

Birds: 417

Clocked: 345

Good Luck to Everyone!
Drops Pos Breeder Pigeon Name Color Sex Ent Arrival Speed To Win Elg Pd
1 Da Cunha Team - ON 9036-CU20-CU BB H 1 11:57:28.12 1012.511 00:00:00 Yes
2 Werner Vahle - ON 8742-CU20-CU BB H 1 11:57:28.50 1012.361 00:00:00 Yes
3 King Conch Loft - ON 2033-CU20-KCH BB H 1 11:57:28.73 1012.269 00:00:01 Yes
4 Pigeonempire.Com B & B - ON 5535-CU20-CU BC H 1 11:57:28.94 1012.185 00:00:01 Yes
5 Big Andy - FL 0205-AU20-BGAN BB H 1 11:57:29.22 1012.074 00:00:01 Yes
6 Fcq - QC 20394-CU20-LAVL BB H 1 11:57:29.90 1011.805 00:00:02 Yes
7 Wolfhillloft - ON 0110-CU20-WFHL Maxi Kitt BBWF H 1 11:57:29.91 1011.800 00:00:02 Yes
8 Three Kings Loft - AB 7050-CU20-CU Janjan 1 BB H 1 11:57:30.02 1011.757 00:00:02 Yes
9 4-C Loft - SK 0004-CU20-REG Billy RED H 1 11:57:30.04 1011.749 00:00:02 Yes
10 V And V Loft - MB 2063-WH20-WPG BB H 1 11:57:30.25 1011.666 00:00:02 Yes
11 John & Mark - AB 8254-CU20-CU BB H 1 11:57:31.56 1011.146 00:00:03 Yes
12 Universal Pigeons - ON 0207-CU20-WFHL BB H 1 11:57:31.71 1011.087 00:00:04 Yes
13 Flying K9's - AB 0219-AU20-K9S BB H 1 11:57:31.80 1011.051 00:00:04 Yes
14 Werner Vahle - ON 8744-CU20-CU BB H 2 11:57:32.63 1010.722 00:00:05 Yes
15 Brad Wogan - ON 3212-CU20-CU BC H 1 11:57:32.73 1010.683 00:00:05 Yes
16 Corbin's Crew - ON 13329-CU20-CU BC H 1 11:57:33.34 1010.441 00:00:05 Yes
17 Brad Wogan - ON 2032-CU20-KCH BC H 2 11:57:33.62 1010.331 00:00:06 Yes
18 Matthew Vaccaro - ON 8729-CU20-CU SLVR H 1 11:57:33.72 1010.291 00:00:06 Yes
19 Can-Am Syndicate - MI 20098-AU20-CNAM BB H 1 11:57:33.74 1010.283 00:00:06 Yes
20 John Black - ON 8028-CU20-MISS GRIZ H 1 11:57:34.81 1009.860 00:00:07 Yes
21 J & D Loft - ON 57204-AU20-ARPU BBWF H 1 11:57:34.96 1009.800 00:00:07 Yes
22 Matthew Vaccaro - ON 8707-CU20-CU BB H 2 11:57:34.97 1009.797 00:00:07 Missing
23 Pigeonempire.Com Guido Madrusan - ON 5539-CU20-CU BB H 1 11:57:35.09 1009.749 00:00:07 Yes
24 Bet 2 Win - ON 2162-CU20-BORD BCPD H 1 11:57:35.69 1009.512 00:00:08 Yes
25 Roys Boys - ON 0914-CU20-FLAM BBPD H 1 11:57:35.81 1009.465 00:00:08 Yes
26 Bluesky Loft - ON 2724-CU20-YRI BC H 1 11:57:36.07 1009.362 00:00:08 Yes
27 Cruz & Vasco Loft - ON 4770-CU20-CU BC H 1 11:57:36.29 1009.275 00:00:08 Yes
28 Big Andy - FL 0212-AU20-BGAN BB H 2 11:57:37.04 1008.979 00:00:09 Yes
29 Turkiewicz Loft - ON 0516-CU20-CP BBPD H 1 11:57:37.05 1008.975 00:00:09 Missing
30 Pigeonempire.Com Guido Madrusan - ON 5545-CU20-CU BC H 2 11:57:37.18 1008.924 00:00:09 Yes
31 Can-Am Syndicate - MI 20096-AU20-CNAM BB H 2 11:57:37.91 1008.636 00:00:10 Yes
32 Jellant - ON 6416-CU20-MISS BB H 1 11:57:38.15 1008.541 00:00:10 Yes
33 Marie Schleifer - ON 7491-CU20-CU BC H 1 11:57:38.24 1008.505 00:00:10 Yes
34 El Dorado Lofts Canada - BC 1751-CU20-CU El Borgin RDPD H 1 11:57:38.50 1008.403 00:00:10 Yes
35 Chicady - ON 57244-AU20-ARPU BBPD H 1 11:57:38.64 1008.348 00:00:11 Yes
36 Chicady - ON 57230-AU20-ARPU CHOC H 2 11:57:38.75 1008.305 00:00:11 Yes
37 Weekend At Bernie's - ON 2020-WH20-WPG RED H 1 11:57:39.20 1008.128 00:00:11 Yes
38 4-C Loft - SK 0003-CU20-REG Kenny RED H 2 11:57:39.37 1008.060 00:00:11 Yes
39 Adirondack Team - NY 4448-AU20-AA BB H 1 11:57:39.85 1007.872 00:00:12 Yes
40 Fcq - QC 20965-CU20-LAVL BCWF H 2 11:57:40.13 1007.761 00:00:12 Yes
41 King Conch Loft - ON 2043-CU20-KCH BC H 2 11:57:40.21 1007.730 00:00:12 Yes
42 P & G Lofts - ON 20139-CU20-LAKE BB H 1 11:57:40.69 1007.541 00:00:13 Yes
43 High-Octane - NY 4452-AU20-AA BBPD H 1 11:57:41.06 1007.395 00:00:13 Yes
44 Dutch Touch Int - ON 3658-CU20-OL BB H 1 11:57:41.23 1007.329 00:00:13 Yes
45 Skyview Loft 2 - ON 0016-CU20-HC BB H 1 11:57:41.60 1007.183 00:00:13 Yes
46 Skyview Loft 2 - ON 10090-CU20-CU BC H 2 11:57:41.61 1007.179 00:00:13 Yes
47 Roys Boys - ON 0963-CU20-FLAM BBPD H 2 11:57:41.71 1007.139 00:00:14 Yes
48 Portuguese Connection - ON 2425-CU20-BORD BBWF H 1 11:57:41.72 1007.136 00:00:14 Yes
49 Duhra Loft - AB 0601-CU20-DUHR BC H 1 11:57:42.45 1006.849 00:00:14 Yes
50 El Dorado Lofts Canada - BC 1759-CU20-CU El Draco BBPD H 2 11:57:42.56 1006.806 00:00:14 Yes
51 R & E Ridder - ON 20613-CU20-GTR Kanata Express BB H 1 11:57:42.69 1006.754 00:00:15 Yes
52 J K Loft 2 - ON 0034-CU20-JKL BC H 1 11:57:42.81 1006.708 00:00:15 Yes
53 J K Loft 2 - ON 0036-CU20-JKL BB H 2 11:57:42.82 1006.703 00:00:15 Yes
54 Gaskin/Lopes - ON 11912-CU20-CU BC H 1 11:57:43.05 1006.614 00:00:15 Yes
55 John Black - ON 8015-CU20-MISS BC H 2 11:57:43.19 1006.558 00:00:15 Yes
56 B D S Loft - ON 0607-CU20-DUHR DC H 1 11:57:43.43 1006.464 00:00:15 Yes
57 V And V Loft - MB 2035-WH20-WPG BKWF H 2 11:57:44.43 1006.071 00:00:16 Yes
58 P B B B - ON 1887-CU20-WW BB H 1 11:57:44.59 1006.009 00:00:16 Yes
59 Bluesky Loft - ON 2711-CU20-YRI BC H 2 11:57:45.02 1005.840 00:00:17 Yes
60 Dutch Touch Int - ON 3676-CU20-OL BCWF H 2 11:57:45.68 1005.581 00:00:18 Yes
61 Jack's Fire Loft - QC 8505-CU20-CU BC H 1 11:57:45.77 1005.546 00:00:18 Yes
62 Mazda - ON 57212-AU20-ARPU GRIZ H 1 11:57:46.35 1005.319 00:00:18 Yes
63 Gold Star Loft Canada - BC 5002-CU20-CU BB H 1 11:57:46.73 1005.170 00:00:19 Yes
64 02 Max - BC 0213-PH20-NR BB H 1 11:57:46.74 1005.166 00:00:19 Yes
65 Les Deux Suzannes - ON 0605-PH20-BA BB H 1 11:57:46.84 1005.127 00:00:19 Yes
66 High-Octane - NY 4431-AU20-AA BB H 2 11:57:47.82 1004.744 00:00:20 Missing
67 Rpc Network - Racingpigeonsca - ON 7887-CU20-MISS BB H 1 11:57:47.94 1004.696 00:00:20 Yes
68 High-Octane - NY 4461-AU20-AA BBPD H 3 11:57:48.09 1004.638 00:00:20 Yes
69 Lamassu Loft - ON 2612-CU20-YRI BB H 1 11:57:48.20 1004.595 00:00:20 Yes
70 Werner Vahle - ON 8747-CU20-CU RED H 3 11:57:48.22 1004.587 00:00:20 Yes
71 Dyck Lofts - AB 8648-CU20-CU BB H 1 11:57:48.55 1004.457 00:00:20 Yes
72 Walt & Dan Gregoruk - ON 0223-CU20-TBAY BB H 1 11:57:49.31 1004.160 00:00:21 Yes
73 Dutch Touch Int - ON 3687-CU20-OL BC H 3 11:57:50.17 1003.825 00:00:22 Yes
74 K & C Moore - BC 20251-CU20-KCM BB H 1 11:57:50.64 1003.641 00:00:23 Yes
75 Duhra Loft - AB 0608-CU20-DUHR DC H 2 11:57:50.77 1003.591 00:00:23 Yes
76 V And V Loft - MB 2038-WH20-WPG BC H 3 11:57:50.93 1003.527 00:00:23 Yes
77 Bartosz And Bill - ON 13302-CU20-CU BB H 1 11:57:51.13 1003.450 00:00:23 Yes
78 Wolfhillloft - ON 0104-CU20-WFHL Morning Sun PNWF H 2 11:57:51.15 1003.442 00:00:23 Yes
79 B D S Loft - ON 0529-CU20-DUHR BB H 2 11:57:51.16 1003.438 00:00:23 Yes
80 Jack's Fire Loft - QC 8528-CU20-CU BB H 2 11:57:51.27 1003.395 00:00:23 Missing
81 Da Cunha Team - ON 9035-CU20-CU BB H 2 11:57:52.14 1003.056 00:00:24 Yes
82 4-C Loft - SK 0007-CU20-REG Lady Luck BB H 3 11:57:52.16 1003.048 00:00:24 Yes
83 El Dorado Lofts Canada - BC 1772-CU20-CU El Traveres BBPD H 3 11:57:52.17 1003.044 00:00:24 Yes
84 Milandrej Team - ON 0792-SK20-0777 BB H 1 11:57:52.25 1003.013 00:00:24 Yes
85 V And V Loft - MB 2003-WH20-WPG BC H 4 11:57:52.37 1002.966 00:00:24 Yes
86 El Dorado Lofts Canada - BC 1793-CU20-CU El Avira BBPD H 4 11:57:53.23 1002.631 00:00:25 Yes
87 Milandrej Team - ON 0793-SK20-0777 BC H 2 11:57:53.25 1002.623 00:00:25 Yes
88 Lamassu Loft - ON 2635-CU20-YRI BC H 2 11:57:53.35 1002.584 00:00:25 Yes
89 Milandrej Team - ON 0798-SK20-0777 BB H 3 11:57:54.21 1002.249 00:00:26 Yes
90 Jim Phelan & Keith Cake - AB 78922-AU20-ARPU BB H 1 11:57:54.22 1002.245 00:00:26 Missing
91 Nicholls Lofts - BC 0021-CU20-NL Designated Survivor BB H 1 11:57:54.24 1002.237 00:00:26 Yes
92 Big Andy - FL 0250-AU20-BGAN BB H 3 11:57:54.32 1002.206 00:00:26 Yes
93 4-C Loft - SK 0014-CU20-REG Empire BC H 4 11:57:54.33 1002.203 00:00:26 Yes
94 Adirondack Team - NY 4434-AU20-AA BC H 2 11:57:55.29 1001.829 00:00:27 Yes
95 El Dorado Lofts Canada - BC 1800-CU20-CU El Lumos BCPD H 5 11:57:55.33 1001.813 00:00:27 Yes
96 Roys Boys - ON 0910-CU20-FLAM DCPD H 3 11:57:55.54 1001.732 00:00:27 Yes
97 John & Mark - AB 29305-AU20-ARPU PEN H 2 11:57:55.68 1001.678 00:00:28 Yes
98 Matthew Vaccaro - ON 8778-CU20-CU BB H 3 11:57:56.54 1001.343 00:00:28 Yes
99 Bonneterre - ON 10250-CU20-CU RDPD H 1 11:57:57.03 1001.153 00:00:29 Missing
100 Adirondack Team - NY 4429-AU20-AA DC H 3 11:57:57.04 1001.148 00:00:29 Yes

There are 340 bird records

Note: These Race Results are unofficial and subject to change until verified by the Race Committee and declared final.